Frontenac, Missouri
Current Conditions -  °F | °C
As of 10:51 AM on Saturday 22 Nov 2014 (Local Time) from KSTL Reporting Station
Overcast Overcast  
Wind Chill: 58°   Ceiling: 3000
Heat Index: 58°   Visibility: 10mi
Dew Point: 46°   Wind: 14mph
Humidity: 65%   Direction: 210°SSW
Pressure: 30.07"   Gusts: 22mph
Location:  38.6172°N, 90.4443°W
Report Text: KSTL 221651Z 21012G19KT 10SM BKN030 OVC070 14/08 A3007 RMK AO2 SLP184 T01440078
Loading
Personal Weather Stations






























Interactive Weather Map New forecast layout! Learn more

10-Day Weather Forecast

Advertisements
Track Severe Weather on mobile